Time;durP1;ratioP1;P1;durP2;ratioP2;P2;SDS_P1;SDS_P2;PMS_P1;PMS_P2;Temp;Humidity;BMP_temperature;BMP_pressure;BME280_temperature;BME280_humidity;BME280_pressure;Samples;Min_cycle;Max_cycle;Signal;HPM_P1;HPM_P2
2022/02/21 00:00:22;;;;;;;22.62;13.85;;;;;;;-0.25;100.00;100626.45;1626514;88;21489;-85
2022/02/21 00:02:52;;;;;;;20.40;12.95;;;;;;;-0.25;100.00;100629.02;1624089;86;21178;-84
2022/02/21 00:05:20;;;;;;;19.50;13.10;;;;;;;-0.27;100.00;100629.07;1626365;87;21290;-83
2022/02/21 00:07:50;;;;;;;19.25;13.18;;;;;;;-0.27;100.00;100633.34;1624568;87;21139;-83
2022/02/21 00:10:18;;;;;;;21.90;12.78;;;;;;;-0.28;100.00;100636.34;1628352;86;21556;-82
2022/02/21 00:12:47;;;;;;;20.35;13.18;;;;;;;-0.27;100.00;100626.94;1617501;88;21069;-82
2022/02/21 00:15:17;;;;;;;17.92;11.30;;;;;;;-0.23;100.00;100625.98;1618145;87;21214;-82
2022/02/21 00:17:45;;;;;;;18.25;11.70;;;;;;;-0.20;100.00;100620.32;1627041;87;21871;-82
2022/02/21 00:20:13;;;;;;;16.87;11.03;;;;;;;-0.14;100.00;100616.75;1602247;88;21461;-82
2022/02/21 00:22:40;;;;;;;16.95;11.33;;;;;;;-0.05;100.00;100621.59;1627270;86;22252;-83
2022/02/21 00:25:08;;;;;;;15.15;11.55;;;;;;;0.02;100.00;100621.39;1621841;86;21092;-82
2022/02/21 00:27:37;;;;;;;18.27;12.37;;;;;;;0.06;100.00;100620.39;1627284;86;21663;-82
2022/02/21 00:30:06;;;;;;;16.57;12.05;;;;;;;0.09;100.00;100612.17;1626791;86;21172;-84
2022/02/21 00:32:34;;;;;;;15.43;11.00;;;;;;;0.13;100.00;100609.07;1608078;86;21160;-84
2022/02/21 00:35:09;;;;;;;17.75;11.38;;;;;;;0.13;100.00;100604.80;1626989;86;21049;-84
2022/02/21 00:37:38;;;;;;;15.78;11.48;;;;;;;0.17;100.00;100605.97;1626825;86;21040;-82
2022/02/21 00:40:06;;;;;;;15.45;11.08;;;;;;;0.17;100.00;100605.54;1626110;86;22014;-83
2022/02/21 00:42:35;;;;;;;19.67;12.85;;;;;;;0.19;100.00;100600.36;1626615;87;21131;-84
2022/02/21 00:45:07;;;;;;;18.65;11.40;;;;;;;0.19;100.00;100592.67;1625922;88;21582;-83
2022/02/21 00:47:32;;;;;;;14.93;10.65;;;;;;;0.17;100.00;100599.14;1603303;86;21087;-83
2022/02/21 00:49:59;;;;;;;19.62;12.05;;;;;;;0.17;100.00;100599.56;1617710;87;21122;-84
2022/02/21 00:52:26;;;;;;;20.08;12.58;;;;;;;0.17;100.00;100599.56;1626816;86;21113;-83
2022/02/21 00:54:53;;;;;;;17.92;12.33;;;;;;;0.12;100.00;100597.18;1624284;87;21109;-83
2022/02/21 00:57:20;;;;;;;19.67;13.08;;;;;;;0.05;100.00;100599.09;1630797;86;21094;-82
2022/02/21 00:59:48;;;;;;;16.93;12.20;;;;;;;-0.04;100.00;100593.80;1601783;88;21611;-83
2022/02/21 01:02:15;;;;;;;25.25;13.08;;;;;;;-0.11;100.00;100598.71;1632076;86;21137;-83
2022/02/21 01:04:43;;;;;;;19.95;12.37;;;;;;;-0.14;100.00;100594.98;1600064;88;21579;-82
2022/02/21 01:07:11;;;;;;;17.82;11.57;;;;;;;-0.14;100.00;100589.87;1629043;86;21214;-83
2022/02/21 01:09:39;;;;;;;17.20;11.55;;;;;;;-0.12;100.00;100591.91;1604484;88;21109;-84
2022/02/21 01:12:08;;;;;;;17.23;11.60;;;;;;;-0.09;100.00;100594.39;1623677;86;21185;-86
2022/02/21 01:14:36;;;;;;;17.23;11.53;;;;;;;-0.07;100.00;100595.61;1616304;86;21056;-86
2022/02/21 01:17:05;;;;;;;17.05;12.18;;;;;;;-0.07;100.00;100583.67;1615388;86;21087;-86
2022/02/21 01:19:32;;;;;;;18.45;11.28;;;;;;;-0.09;100.00;100588.45;1618748;87;21999;-83
2022/02/21 01:22:01;;;;;;;18.57;12.23;;;;;;;-0.11;100.00;100586.37;1622581;86;21118;-83
2022/02/21 01:24:28;;;;;;;18.65;11.93;;;;;;;-0.14;100.00;100577.49;1617946;88;21092;-83
2022/02/21 01:26:55;;;;;;;18.35;12.05;;;;;;;-0.18;100.00;100583.15;1617975;87;21112;-82
2022/02/21 01:29:23;;;;;;;16.30;11.53;;;;;;;-0.23;100.00;100575.61;1617776;87;21107;-84
2022/02/21 01:31:50;;;;;;;17.35;12.25;;;;;;;-0.27;100.00;100573.19;1618166;88;21169;-83
2022/02/21 01:34:17;;;;;;;17.87;10.68;;;;;;;-0.32;100.00;100574.19;1627193;86;21046;-82
2022/02/21 01:36:44;;;;;;;18.32;11.33;;;;;;;-0.37;100.00;100570.94;1617522;88;22048;-83
2022/02/21 01:39:12;;;;;;;14.68;9.85;;;;;;;-0.42;100.00;100569.40;1626839;86;21047;-83
2022/02/21 01:41:39;;;;;;;17.15;11.40;;;;;;;-0.48;100.00;100562.73;1617392;87;21068;-83
2022/02/21 01:44:13;;;;;;;17.98;11.25;;;;;;;-0.54;100.00;100558.63;1624421;86;21812;-84
2022/02/21 01:46:41;;;;;;;16.23;10.58;;;;;;;-0.58;100.00;100562.61;1599834;88;21168;-82
2022/02/21 01:49:12;;;;;;;16.50;10.63;;;;;;;-0.64;100.00;100564.47;1584445;89;21145;-84
2022/02/21 01:51:39;;;;;;;17.75;10.38;;;;;;;-0.66;100.00;100561.11;1628096;87;21627;-82
2022/02/21 01:54:12;;;;;;;12.70;8.38;;;;;;;-0.70;100.00;100559.55;1599817;88;21608;-85
2022/02/21 01:56:39;;;;;;;13.28;9.18;;;;;;;-0.75;100.00;100563.94;1605662;86;21078;-82
2022/02/21 01:59:07;;;;;;;13.85;9.20;;;;;;;-0.80;100.00;100564.52;1617790;87;21115;-83
2022/02/21 02:01:35;;;;;;;15.18;8.95;;;;;;;-0.85;100.00;100561.27;1617804;88;21058;-85
2022/02/21 02:04:04;;;;;;;15.23;9.25;;;;;;;-0.89;100.00;100563.50;1617752;86;21055;-84
2022/02/21 02:06:34;;;;;;;13.68;9.25;;;;;;;-0.92;100.00;100564.42;1617854;88;21063;-86
2022/02/21 02:09:01;;;;;;;14.18;8.68;;;;;;;-0.96;100.00;100562.39;1618357;87;21192;-84
2022/02/21 02:11:34;;;;;;;16.10;9.00;;;;;;;-0.99;100.00;100565.03;1618200;87;21124;-83
2022/02/21 02:14:01;;;;;;;14.35;8.83;;;;;;;-1.01;100.00;100565.95;1618177;88;21041;-83
2022/02/21 02:16:28;;;;;;;14.20;9.43;;;;;;;-1.02;100.00;100563.00;1617809;87;21092;-84
2022/02/21 02:18:56;;;;;;;15.18;9.20;;;;;;;-1.04;100.00;100573.73;1617987;88;21119;-83
2022/02/21 02:21:28;;;;;;;15.53;9.30;;;;;;;-1.07;100.00;100571.25;1591219;88;21182;-84
2022/02/21 02:23:56;;;;;;;13.05;8.90;;;;;;;-1.08;100.00;100570.39;1617943;88;21037;-84
2022/02/21 02:26:24;;;;;;;15.58;8.93;;;;;;;-1.11;100.00;100566.20;1618068;87;21044;-82
2022/02/21 02:28:54;;;;;;;16.37;9.05;;;;;;;-1.10;100.00;100567.06;1617768;87;21537;-83
2022/02/21 02:31:21;;;;;;;17.87;9.37;;;;;;;-1.11;100.00;100571.31;1618278;87;21104;-84
2022/02/21 02:33:49;;;;;;;17.00;9.75;;;;;;;-1.12;100.00;100563.25;1617776;87;21237;-83
2022/02/21 02:36:16;;;;;;;11.53;8.35;;;;;;;-1.11;100.00;100564.92;1618016;87;21102;-83
2022/02/21 02:38:43;;;;;;;12.88;8.53;;;;;;;-1.14;100.00;100561.62;1590876;88;21045;-82
2022/02/21 02:41:11;;;;;;;13.88;9.13;;;;;;;-1.16;100.00;100561.67;1617977;87;21064;-81
2022/02/21 02:43:40;;;;;;;12.93;8.88;;;;;;;-1.16;100.00;100564.67;1617868;87;21144;-82
2022/02/21 02:46:07;;;;;;;12.88;8.80;;;;;;;-1.17;100.00;100556.61;1617825;88;21169;-84
2022/02/21 02:48:35;;;;;;;17.67;9.35;;;;;;;-1.20;100.00;100556.68;1617730;87;21110;-82
2022/02/21 02:51:02;;;;;;;11.97;8.45;;;;;;;-1.22;100.00;100560.56;1590823;88;21591;-83
2022/02/21 02:53:31;;;;;;;12.05;8.33;;;;;;;-1.21;100.00;100563.52;1590721;87;21584;-84
2022/02/21 02:55:58;;;;;;;13.98;9.53;;;;;;;-1.17;100.00;100563.00;1617879;87;21084;-83
2022/02/21 02:58:25;;;;;;;14.47;8.50;;;;;;;-1.15;100.00;100562.08;1590353;88;21098;-84
2022/02/21 03:00:52;;;;;;;13.00;8.95;;;;;;;-1.12;100.00;100570.09;1617837;87;21136;-83
2022/02/21 03:03:20;;;;;;;11.97;8.55;;;;;;;-1.10;100.00;100572.17;1591421;88;21088;-82
2022/02/21 03:05:48;;;;;;;12.70;8.78;;;;;;;-1.05;100.00;100572.87;1617708;88;21072;-83
2022/02/21 03:08:15;;;;;;;13.88;9.00;;;;;;;-1.00;100.00;100573.57;1590855;88;21091;-85
2022/02/21 03:10:42;;;;;;;15.85;9.30;;;;;;;-0.93;100.00;100572.15;1618039;88;21163;-82
2022/02/21 03:13:10;;;;;;;14.85;9.90;;;;;;;-0.91;100.00;100561.41;1617681;88;21081;-82
2022/02/21 03:15:38;;;;;;;19.57;11.83;;;;;;;-0.89;100.00;100562.22;1617750;87;21043;-82
2022/02/21 03:18:05;;;;;;;21.23;11.68;;;;;;;-0.88;100.00;100554.95;1601815;86;21093;-83
2022/02/21 03:20:33;;;;;;;16.93;10.75;;;;;;;-0.89;100.00;100553.27;1620798;86;21233;-82
2022/02/21 03:23:00;;;;;;;16.65;10.20;;;;;;;-0.88;100.00;100552.39;1657575;85;21150;-82
2022/02/21 03:25:26;;;;;;;22.15;11.78;;;;;;;-0.90;100.00;100545.20;1626883;86;21111;-82
2022/02/21 03:27:54;;;;;;;20.23;11.12;;;;;;;-0.88;100.00;100540.44;1654728;85;21055;-82
2022/02/21 03:30:21;;;;;;;17.73;11.63;;;;;;;-0.87;100.00;100538.27;1637759;85;21502;-81
2022/02/21 03:32:48;;;;;;;21.02;11.88;;;;;;;-0.85;100.00;100539.53;1687048;83;21135;-84
2022/02/21 03:35:15;;;;;;;16.50;10.70;;;;;;;-0.84;100.00;100538.66;1688650;83;21155;-82
2022/02/21 03:37:42;;;;;;;17.40;10.88;;;;;;;-0.82;100.00;100533.03;1688509;83;21191;-82
2022/02/21 03:40:12;;;;;;;16.85;11.22;;;;;;;-0.77;100.00;100535.45;1685489;83;21566;-85
2022/02/21 03:42:39;;;;;;;18.12;11.08;;;;;;;-0.73;100.00;100536.61;1655685;84;21585;-84
2022/02/21 03:45:07;;;;;;;16.80;10.25;;;;;;;-0.68;100.00;100537.75;1663270;84;21071;-82
2022/02/21 03:47:35;;;;;;;16.40;10.15;;;;;;;-0.58;100.00;100540.86;1668944;84;21964;-81
2022/02/21 03:50:03;;;;;;;17.77;10.63;;;;;;;-0.51;100.00;100543.20;1650240;85;21124;-83
2022/02/21 03:52:31;;;;;;;18.02;10.68;;;;;;;-0.45;100.00;100539.63;1598639;87;21079;-83
2022/02/21 03:54:58;;;;;;;17.77;11.70;;;;;;;-0.39;100.00;100543.27;1655440;84;21066;-82
2022/02/21 03:57:31;;;;;;;17.17;10.75;;;;;;;-0.34;100.00;100542.67;1640789;85;21048;-85
2022/02/21 03:59:58;;;;;;;20.10;10.93;;;;;;;-0.32;100.00;100538.36;1644190;84;21754;-83
2022/02/21 04:02:25;;;;;;;19.45;12.15;;;;;;;-0.28;100.00;100531.87;1653847;85;21125;-84
2022/02/21 04:04:52;;;;;;;22.87;13.10;;;;;;;-0.26;100.00;100530.94;1634592;85;21075;-83
2022/02/21 04:07:21;;;;;;;17.70;11.68;;;;;;;-0.24;100.00;100532.16;1642255;85;21149;-85
2022/02/21 04:09:50;;;;;;;22.25;12.68;;;;;;;-0.26;100.00;100525.82;1645780;84;21650;-83
2022/02/21 04:12:17;;;;;;;19.48;11.75;;;;;;;-0.24;100.00;100529.60;1621944;87;21231;-83
2022/02/21 04:14:45;;;;;;;21.87;12.63;;;;;;;-0.23;100.00;100519.77;1622881;85;21577;-83
2022/02/21 04:17:13;;;;;;;22.82;12.15;;;;;;;-0.20;100.00;100522.23;1620202;87;21152;-83
2022/02/21 04:19:42;;;;;;;19.73;12.23;;;;;;;-0.14;100.00;100528.44;1625576;86;21205;-82
2022/02/21 04:22:14;;;;;;;18.98;11.95;;;;;;;-0.09;100.00;100525.27;1623133;86;21551;-83
2022/02/21 04:24:41;;;;;;;20.57;12.07;;;;;;;-0.03;100.00;100531.47;1619757;86;21110;-82
2022/02/21 04:27:09;;;;;;;19.95;13.62;;;;;;;0.04;100.00;100532.11;1639386;84;21079;-81
2022/02/21 04:29:38;;;;;;;20.43;12.00;;;;;;;0.08;100.00;100539.25;1636484;85;21097;-81
2022/02/21 04:32:07;;;;;;;22.77;12.75;;;;;;;0.11;100.00;100536.14;1664078;83;21692;-82
2022/02/21 04:34:35;;;;;;;26.62;13.28;;;;;;;0.15;100.00;100543.28;1641633;85;21159;-80
2022/02/21 04:37:02;;;;;;;59.03;14.83;;;;;;;0.21;100.00;100535.84;1626404;86;21187;-81
2022/02/21 04:39:29;;;;;;;71.33;16.52;;;;;;;0.74;100.00;100533.16;1626584;85;21137;-79
2022/02/21 04:41:56;;;;;;;87.97;18.00;;;;;;;1.33;100.00;100540.02;1623911;86;22023;-78
2022/02/21 04:44:23;;;;;;;36.20;14.33;;;;;;;1.74;100.00;100543.14;1597223;87;21144;-80
2022/02/21 04:46:50;;;;;;;21.27;12.82;;;;;;;1.99;100.00;100543.02;1625745;85;22009;-78
2022/02/21 04:49:17;;;;;;;19.82;13.32;;;;;;;1.94;100.00;100539.78;1623333;86;21169;-78
2022/02/21 04:51:44;;;;;;;28.57;13.83;;;;;;;1.76;100.00;100540.08;1625291;86;21211;-78
2022/02/21 04:54:11;;;;;;;98.03;20.52;;;;;;;1.56;100.00;100538.29;1648812;85;21181;-78
2022/02/21 04:56:38;;;;;;;65.25;17.90;;;;;;;1.47;100.00;100534.80;1648830;85;21136;-79
2022/02/21 04:59:05;;;;;;;56.00;18.60;;;;;;;1.82;100.00;100540.29;1607367;84;21170;-79
2022/02/21 05:01:33;;;;;;;39.15;16.20;;;;;;;2.30;100.00;100539.63;1659548;84;21166;-82
2022/02/21 05:04:00;;;;;;;25.88;15.30;;;;;;;2.70;100.00;100549.95;1642554;85;21146;-82
2022/02/21 05:06:28;;;;;;;24.95;14.87;;;;;;;2.99;100.00;100553.83;1604175;87;21834;-83
2022/02/21 05:08:55;;;;;;;24.45;16.05;;;;;;;2.78;100.00;100548.71;1632263;85;21102;-84
2022/02/21 05:11:22;;;;;;;20.82;14.53;;;;;;;2.78;100.00;100548.71;1629249;86;21077;-83
2022/02/21 05:13:49;;;;;;;23.02;14.68;;;;;;;2.38;100.00;100549.59;1663522;84;21586;-81
2022/02/21 05:16:16;;;;;;;20.62;14.18;;;;;;;2.38;100.00;100549.59;1609401;86;21072;-81
2022/02/21 05:18:43;;;;;;;22.55;15.72;;;;;;;2.21;100.00;100549.84;1620962;85;21985;-79
2022/02/21 05:21:10;;;;;;;28.25;15.50;;;;;;;1.98;100.00;100540.50;1624470;85;21650;-79
2022/02/21 05:23:38;;;;;;;23.57;14.65;;;;;;;1.98;100.00;100540.50;1617663;86;21150;-80
2022/02/21 05:26:05;;;;;;;24.23;15.58;;;;;;;1.91;100.00;100537.79;1649770;83;21097;-80
2022/02/21 05:28:32;;;;;;;29.77;17.12;;;;;;;1.88;100.00;100542.61;1646489;84;21888;-80
2022/02/21 05:30:59;;;;;;;27.80;18.37;;;;;;;1.83;100.00;100531.23;1672321;84;21615;-79
2022/02/21 05:33:26;;;;;;;31.95;17.50;;;;;;;1.77;100.00;100540.47;1672584;84;21061;-79
2022/02/21 05:35:53;;;;;;;28.27;17.00;;;;;;;1.71;100.00;100535.13;1650278;85;21120;-80
2022/02/21 05:38:20;;;;;;;30.88;18.85;;;;;;;1.70;100.00;100530.88;1638283;85;21842;-78
2022/02/21 05:40:47;;;;;;;27.62;18.12;;;;;;;1.70;100.00;100530.88;1644098;85;21144;-80
2022/02/21 05:43:16;;;;;;;44.20;19.62;;;;;;;1.71;100.00;100532.55;1638291;85;21047;-79
2022/02/21 05:45:43;;;;;;;34.90;18.45;;;;;;;1.70;100.00;100542.89;1639431;85;21131;-80
2022/02/21 05:48:10;;;;;;;30.97;18.27;;;;;;;1.71;100.00;100543.28;1642039;85;21058;-79
2022/02/21 05:50:37;;;;;;;27.87;17.82;;;;;;;1.72;100.00;100543.67;1638626;85;21129;-80
2022/02/21 05:53:05;;;;;;;31.52;19.70;;;;;;;1.71;100.00;100538.97;1616395;86;21102;-79
2022/02/21 05:55:35;;;;;;;26.27;18.37;;;;;;;1.72;100.00;100535.98;1649548;84;21098;-81
2022/02/21 05:58:01;;;;;;;30.70;19.62;;;;;;;1.72;100.00;100531.66;1644348;85;21072;-79
2022/02/21 06:00:30;;;;;;;32.42;19.15;;;;;;;1.76;100.00;100537.52;1654407;85;21070;-80
2022/02/21 06:02:57;;;;;;;28.25;20.57;;;;;;;1.84;100.00;100552.63;1634402;86;21069;-80
2022/02/21 06:05:25;;;;;;;39.73;23.12;;;;;;;1.84;100.00;100552.63;1655357;85;21075;-79
2022/02/21 06:07:52;;;;;;;36.00;22.02;;;;;;;1.89;100.00;100556.66;1653704;85;21100;-79
2022/02/21 06:10:19;;;;;;;30.82;19.92;;;;;;;1.93;100.00;100547.56;1638432;85;21114;-78
2022/02/21 06:12:48;;;;;;;31.90;19.92;;;;;;;1.96;100.00;100549.55;1631672;86;21652;-79
2022/02/21 06:15:16;;;;;;;36.85;18.95;;;;;;;2.03;100.00;100552.72;1596751;87;22191;-79
2022/02/21 06:17:43;;;;;;;33.28;19.20;;;;;;;2.03;100.00;100552.72;1622592;86;21079;-80
2022/02/21 06:20:11;;;;;;;28.65;17.73;;;;;;;2.05;100.00;100551.76;1633495;86;21087;-79
2022/02/21 06:22:38;;;;;;;28.67;18.85;;;;;;;2.12;100.00;100547.22;1631629;86;21116;-80
2022/02/21 06:25:07;;;;;;;30.70;19.52;;;;;;;2.12;100.00;100547.22;1632792;86;21063;-79
2022/02/21 06:27:34;;;;;;;28.73;18.67;;;;;;;2.18;100.00;100548.67;1631881;86;21153;-79
2022/02/21 06:30:02;;;;;;;31.05;20.00;;;;;;;2.27;100.00;100544.91;1617136;87;21104;-79
2022/02/21 06:32:29;;;;;;;30.30;18.82;;;;;;;2.27;100.00;100544.91;1631276;86;21048;-81
2022/02/21 06:34:57;;;;;;;28.62;18.95;;;;;;;2.41;100.00;100556.72;1632318;86;21070;-79
2022/02/21 06:37:24;;;;;;;32.30;19.65;;;;;;;2.45;100.00;100553.11;1624410;85;21211;-81
2022/02/21 06:39:51;;;;;;;34.35;20.77;;;;;;;2.45;100.00;100553.11;1645841;84;21131;-80
2022/02/21 06:42:18;;;;;;;30.50;19.77;;;;;;;2.49;100.00;100546.95;1626242;86;21645;-80
2022/02/21 06:44:45;;;;;;;29.50;19.92;;;;;;;2.55;100.00;100545.02;1626420;86;21498;-78
2022/02/21 06:47:12;;;;;;;30.70;21.02;;;;;;;2.60;100.00;100546.49;1615255;86;21130;-79
2022/02/21 06:49:41;;;;;;;30.90;20.48;;;;;;;2.66;100.00;100541.55;1636364;86;21089;-78
2022/02/21 06:52:08;;;;;;;29.98;19.67;;;;;;;2.73;100.00;100540.80;1604411;86;21184;-79
2022/02/21 06:54:36;;;;;;;29.40;20.20;;;;;;;2.80;100.00;100543.06;1627929;86;21080;-81
2022/02/21 06:57:03;;;;;;;29.23;20.90;;;;;;;2.88;100.00;100553.02;1627149;86;21642;-80
2022/02/21 06:59:32;;;;;;;28.50;18.95;;;;;;;2.94;100.00;100550.17;1640595;85;21123;-80
2022/02/21 07:01:59;;;;;;;33.92;21.30;;;;;;;2.99;100.00;100553.37;1627316;85;21119;-79
2022/02/21 07:04:26;;;;;;;33.83;21.10;;;;;;;3.03;100.00;100557.92;1645113;85;21171;-80
2022/02/21 07:06:53;;;;;;;34.88;21.95;;;;;;;3.08;100.00;100560.30;1610491;88;21152;-81
2022/02/21 07:09:20;;;;;;;32.63;21.62;;;;;;;3.10;100.00;100561.89;1641348;85;21166;-80
2022/02/21 07:11:49;;;;;;;32.30;20.75;;;;;;;3.13;100.00;100559.19;1654489;85;21031;-79
2022/02/21 07:14:16;;;;;;;36.55;22.52;;;;;;;3.19;100.00;100555.95;1686028;83;21091;-80
2022/02/21 07:16:43;;;;;;;30.85;21.57;;;;;;;3.20;100.00;100557.62;1655480;84;21146;-82
2022/02/21 07:19:10;;;;;;;34.63;22.82;;;;;;;3.26;100.00;100554.77;1627531;86;21080;-79
2022/02/21 07:21:37;;;;;;;35.03;22.65;;;;;;;3.31;100.00;100551.55;1623248;86;21050;-79
2022/02/21 07:24:05;;;;;;;30.25;22.10;;;;;;;3.34;100.00;100553.96;1626134;87;21149;-80
2022/02/21 07:26:33;;;;;;;34.83;22.60;;;;;;;3.38;100.00;100549.06;1625428;87;21102;-79
2022/02/21 07:29:00;;;;;;;31.97;22.95;;;;;;;3.45;100.00;100546.59;1610791;86;21131;-79
2022/02/21 07:31:27;;;;;;;35.25;23.80;;;;;;;3.53;100.00;100544.11;1649812;85;21091;-79
2022/02/21 07:33:54;;;;;;;34.15;22.13;;;;;;;3.58;100.00;100539.13;1653671;85;20974;-79
2022/02/21 07:36:21;;;;;;;35.55;24.05;;;;;;;3.66;100.00;100541.80;1636308;85;21603;-80
2022/02/21 07:38:49;;;;;;;32.30;23.65;;;;;;;3.72;100.00;100546.20;1652977;85;21140;-80
2022/02/21 07:41:16;;;;;;;38.92;23.02;;;;;;;3.81;100.00;100547.94;1648638;85;21169;-80
2022/02/21 07:43:43;;;;;;;36.42;22.70;;;;;;;3.87;100.00;100541.23;1650742;85;21110;-79
2022/02/21 07:46:11;;;;;;;37.33;24.15;;;;;;;3.95;100.00;100541.69;1625835;86;21124;-79
2022/02/21 07:48:39;;;;;;;40.08;24.23;;;;;;;4.03;100.00;100542.59;1656225;85;21153;-79
2022/02/21 07:51:06;;;;;;;40.63;25.62;;;;;;;4.12;100.00;100546.48;1612285;86;21068;-80
2022/02/21 07:53:33;;;;;;;37.88;24.90;;;;;;;4.21;100.00;100542.13;1632926;86;21176;-79
2022/02/21 07:56:01;;;;;;;40.10;26.77;;;;;;;4.29;100.00;100545.16;1628608;85;21086;-79
2022/02/21 07:58:28;;;;;;;44.58;28.77;;;;;;;4.35;100.00;100537.14;1614694;86;21079;-80
2022/02/21 08:00:55;;;;;;;45.35;27.35;;;;;;;4.44;100.00;100541.45;1631127;85;21075;-81
2022/02/21 08:03:22;;;;;;;40.03;27.82;;;;;;;4.50;100.00;100540.67;1639555;85;21110;-79
2022/02/21 08:05:50;;;;;;;46.30;29.42;;;;;;;4.56;100.00;100533.08;1639945;85;21145;-80
2022/02/21 08:08:17;;;;;;;41.98;26.62;;;;;;;4.63;100.00;100537.01;1639727;85;21599;-81
2022/02/21 08:10:44;;;;;;;37.50;25.80;;;;;;;4.70;100.00;100535.78;1637211;85;21596;-82
2022/02/21 08:13:11;;;;;;;39.03;24.23;;;;;;;4.78;100.00;100524.23;1641124;85;21159;-81
2022/02/21 08:15:39;;;;;;;35.50;23.05;;;;;;;4.85;100.00;100530.73;1641991;85;21103;-83
2022/02/21 08:18:06;;;;;;;41.83;25.30;;;;;;;4.95;100.00;100534.97;1601300;85;21087;-83
2022/02/21 08:20:33;;;;;;;35.25;23.73;;;;;;;5.02;100.00;100528.09;1627071;85;21672;-80
2022/02/21 08:23:00;;;;;;;36.65;24.55;;;;;;;5.13;100.00;100530.56;1609940;85;21078;-80
2022/02/21 08:25:28;;;;;;;37.05;23.87;;;;;;;5.21;100.00;100527.12;1627645;85;21079;-79
2022/02/21 08:27:55;;;;;;;38.00;25.30;;;;;;;5.29;100.00;100526.72;1627426;86;21138;-79
2022/02/21 08:30:23;;;;;;;41.53;24.90;;;;;;;5.35;100.00;100524.61;1626995;85;21141;-79
2022/02/21 08:32:51;;;;;;;38.10;25.02;;;;;;;5.44;100.00;100525.02;1629348;85;21052;-79
2022/02/21 08:35:19;;;;;;;40.38;26.75;;;;;;;5.48;100.00;100524.77;1599024;87;21609;-80
2022/02/21 08:37:46;;;;;;;46.68;27.62;;;;;;;5.55;100.00;100525.28;1631057;85;21659;-78
2022/02/21 08:40:17;;;;;;;41.92;26.48;;;;;;;5.60;100.00;100523.26;1635901;85;21190;-78
2022/02/21 08:42:45;;;;;;;38.07;26.63;;;;;;;5.64;100.00;100520.05;1678024;83;21101;-78
2022/02/21 08:45:13;;;;;;;34.00;23.52;;;;;;;5.67;100.00;100518.59;1647909;84;21511;-81
2022/02/21 08:47:40;;;;;;;35.43;21.97;;;;;;;5.73;100.00;100512.25;1640578;85;21058;-80
2022/02/21 08:50:10;;;;;;;32.15;21.82;;;;;;;5.81;100.00;100517.79;1642154;85;21583;-78
2022/02/21 08:52:42;;;;;;;32.50;21.80;;;;;;;5.91;100.00;100518.94;1611020;85;21114;-78
2022/02/21 08:55:15;;;;;;;30.57;20.97;;;;;;;5.95;100.00;100515.28;1639555;85;21163;-80
2022/02/21 08:57:42;;;;;;;31.82;21.05;;;;;;;6.02;100.00;100513.66;1639645;85;21517;-77
2022/02/21 09:00:12;;;;;;;34.67;21.10;;;;;;;6.11;100.00;100517.01;1639160;85;21113;-78
2022/02/21 09:02:45;;;;;;;37.85;21.95;;;;;;;6.19;100.00;100513.96;1639657;85;21082;-77
2022/02/21 09:05:13;;;;;;;34.48;21.23;;;;;;;6.24;100.00;100512.77;1644143;85;21664;-79
2022/02/21 09:07:40;;;;;;;28.20;20.32;;;;;;;6.29;100.00;100506.86;1639450;85;21152;-77
2022/02/21 09:10:08;;;;;;;30.70;19.87;;;;;;;6.37;100.00;100506.90;1683147;83;21102;-77
2022/02/21 09:12:36;;;;;;;31.73;20.43;;;;;;;6.46;100.00;100503.73;1681160;83;21051;-78
2022/02/21 09:15:06;;;;;;;29.48;20.52;;;;;;;6.56;100.00;100506.62;1677702;83;21062;-79
2022/02/21 09:17:35;;;;;;;32.35;22.07;;;;;;;6.66;100.00;100502.55;1668833;84;21072;-81
2022/02/21 09:20:03;;;;;;;27.85;20.25;;;;;;;6.74;100.00;100501.62;1670188;84;21959;-78
2022/02/21 09:22:31;;;;;;;24.90;18.23;;;;;;;6.81;100.00;100504.67;1670129;84;21107;-79
2022/02/21 09:24:58;;;;;;;29.18;18.92;;;;;;;6.88;100.00;100504.66;1670067;85;21604;-81
2022/02/21 09:27:26;;;;;;;28.32;18.65;;;;;;;6.96;100.00;100502.91;1670741;84;21089;-79
2022/02/21 09:29:53;;;;;;;26.93;17.80;;;;;;;7.04;100.00;100500.67;1668241;85;21597;-78
2022/02/21 09:32:20;;;;;;;26.07;17.23;;;;;;;7.12;100.00;100489.83;1649847;85;22220;-79
2022/02/21 09:34:49;;;;;;;24.32;16.77;;;;;;;7.18;100.00;100492.50;1613462;85;21089;-77
2022/02/21 09:37:16;;;;;;;23.85;15.53;;;;;;;7.25;100.00;100489.89;1630416;85;21096;-78
2022/02/21 09:39:43;;;;;;;21.73;15.45;;;;;;;7.31;100.00;100488.20;1643554;85;21209;-78
2022/02/21 09:42:11;;;;;;;20.60;14.40;;;;;;;7.38;100.00;100488.66;1652324;85;21141;-78
2022/02/21 09:44:38;;;;;;;20.50;14.63;;;;;;;7.44;100.00;100490.84;1655254;84;21832;-78
2022/02/21 09:47:07;;;;;;;18.60;13.15;;;;;;;7.49;100.00;100484.89;1653104;84;21050;-78
2022/02/21 09:49:34;;;;;;;24.55;13.30;;;;;;;7.55;100.00;100484.52;1651102;84;21097;-77
2022/02/21 09:52:01;;;;;;;18.67;12.65;;;;;;;7.62;100.00;100482.34;1657437;84;21173;-77
2022/02/21 09:54:30;;;;;;;37.35;13.78;;;;;;;7.66;100.00;100479.08;1643042;84;21135;-80
2022/02/21 09:56:58;;;;;;;29.80;13.60;;;;;;;7.71;100.00;100480.45;1635630;84;21145;-79
2022/02/21 09:59:25;;;;;;;37.25;12.78;;;;;;;7.92;100.00;100485.63;1649340;84;21103;-79
2022/02/21 10:01:53;;;;;;;68.57;17.45;;;;;;;8.11;100.00;100480.89;1654065;85;21098;-80
2022/02/21 10:04:27;;;;;;;37.40;13.15;;;;;;;8.27;100.00;100482.45;1631963;86;21782;-79
2022/02/21 10:06:57;;;;;;;34.00;13.90;;;;;;;8.38;100.00;100485.13;1632210;86;21058;-79
2022/02/21 10:09:25;;;;;;;26.67;13.47;;;;;;;8.46;100.00;100484.63;1653052;85;21144;-79
2022/02/21 10:11:58;;;;;;;41.53;12.82;;;;;;;8.52;100.00;100483.78;1640025;85;21054;-79
2022/02/21 10:14:30;;;;;;;20.35;12.07;;;;;;;8.57;100.00;100480.02;1615214;87;21103;-78
2022/02/21 10:17:00;;;;;;;27.48;12.00;;;;;;;8.62;100.00;100487.02;1603492;87;21066;-79
2022/02/21 10:19:36;;;;;;;30.35;12.30;;;;;;;8.66;100.00;100482.80;1595152;87;21070;-78
2022/02/21 10:22:11;;;;;;;21.45;11.35;;;;;;;8.72;100.00;100476.84;1585275;88;21389;-79
2022/02/21 10:24:49;;;;;;;28.80;11.78;;;;;;;8.76;100.00;100475.23;1604731;86;21085;-78
2022/02/21 10:27:24;;;;;;;23.60;11.85;;;;;;;8.79;100.00;100472.39;1628956;86;21134;-80
2022/02/21 10:30:01;;;;;;;15.68;10.60;;;;;;;8.82;100.00;100469.59;1624091;86;21634;-81
2022/02/21 10:32:43;;;;;;;13.68;10.25;;;;;;;8.81;100.00;100459.33;1576660;88;21122;-80
2022/02/21 10:35:28;;;;;;;16.87;11.33;;;;;;;8.80;100.00;100468.87;1606623;88;21160;-80
2022/02/21 10:38:02;;;;;;;364.50;188.20;;;;;;;8.79;100.00;100466.39;1627330;86;21157;-80
2022/02/21 10:40:36;;;;;;;275.27;138.75;;;;;;;8.77;100.00;100467.77;1601774;88;21616;-77
2022/02/21 10:43:22;;;;;;;84.42;44.80;;;;;;;8.78;100.00;100469.44;1657876;84;21170;-77
2022/02/21 10:45:48;;;;;;;68.07;36.33;;;;;;;8.79;100.00;100458.59;1666892;84;21074;-78
2022/02/21 10:48:20;;;;;;;45.08;21.80;;;;;;;8.81;100.00;100453.66;1669220;85;21086;-79
2022/02/21 10:50:59;;;;;;;32.73;17.98;;;;;;;8.85;100.00;100454.27;1667417;84;21209;-78
2022/02/21 10:53:44;;;;;;;27.60;14.90;;;;;;;8.87;100.00;100454.15;1649257;85;21614;-79
2022/02/21 10:56:13;;;;;;;53.20;23.85;;;;;;;8.90;100.00;100452.16;1661203;85;21106;-78
2022/02/21 10:58:41;;;;;;;56.10;20.02;;;;;;;8.93;100.00;100442.87;1652639;85;21051;-79
2022/02/21 11:01:10;;;;;;;70.92;25.08;;;;;;;8.99;100.00;100445.50;1630137;86;21174;-77
2022/02/21 11:03:37;;;;;;;38.58;18.32;;;;;;;9.03;100.00;100442.22;1629390;86;21106;-77
2022/02/21 11:06:05;;;;;;;35.60;18.45;;;;;;;9.10;100.00;100437.76;1629972;86;22004;-81
2022/02/21 11:08:33;;;;;;;30.75;15.63;;;;;;;9.15;100.00;100436.98;1629738;86;21118;-80
2022/02/21 11:11:13;;;;;;;37.73;21.52;;;;;;;9.20;100.00;100429.30;1629949;86;21126;-80